Time;durP1;ratioP1;P1;durP2;ratioP2;P2;SDS_P1;SDS_P2;PMS_P1;PMS_P2;Temp;Humidity;BMP_temperature;BMP_pressure;BME280_temperature;BME280_humidity;BME280_pressure;Samples;Min_cycle;Max_cycle;Signal;HPM_P1;HPM_P2
2023/03/10 00:00:33;;;;;;;;;5.00;5.00;;;;;;;;5244190;28;8791;-67
2023/03/10 00:03:22;;;;;;;;;29.20;29.20;;;;;;;;5247707;28;8849;-66
2023/03/10 00:05:53;;;;;;;;;20.00;20.00;;;;;;;;5248705;28;8779;-66
2023/03/10 00:08:24;;;;;;;;;8.20;8.20;;;;;;;;5247218;28;11672;-67
2023/03/10 00:10:55;;;;;;;;;5.00;4.40;;;;;;;;5247485;28;8795;-67
2023/03/10 00:13:27;;;;;;;;;6.80;5.00;;;;;;;;5230733;28;8775;-67
2023/03/10 00:15:58;;;;;;;;;2.80;2.00;;;;;;;;5247113;28;8787;-67
2023/03/10 00:18:29;;;;;;;;;2.00;2.00;;;;;;;;5223349;28;8786;-67
2023/03/10 00:21:00;;;;;;;;;4.00;4.00;;;;;;;;5210024;28;8808;-67
2023/03/10 00:23:30;;;;;;;;;5.00;4.75;;;;;;;;5228112;28;8813;-67
2023/03/10 00:26:01;;;;;;;;;2.00;2.00;;;;;;;;5235562;28;8808;-67
2023/03/10 00:28:32;;;;;;;;;3.50;3.50;;;;;;;;5213778;28;8820;-67
2023/03/10 00:31:05;;;;;;;;;2.80;2.00;;;;;;;;5213976;28;8785;-67
2023/03/10 00:33:36;;;;;;;;;4.20;4.20;;;;;;;;5256118;28;9023;-67
2023/03/10 00:36:11;;;;;;;;;8.60;8.60;;;;;;;;5250722;28;8794;-67
2023/03/10 00:38:44;;;;;;;;;0.20;0.20;;;;;;;;5235731;28;9520;-67
2023/03/10 00:41:19;;;;;;;;;7.60;7.60;;;;;;;;5248312;28;8802;-67
2023/03/10 00:43:51;;;;;;;;;9.40;9.40;;;;;;;;5247751;28;9535;-68
2023/03/10 00:46:23;;;;;;;;;6.20;5.40;;;;;;;;5230155;28;8910;-67
2023/03/10 00:48:54;;;;;;;;;12.00;11.60;;;;;;;;5213653;28;8804;-67
2023/03/10 00:51:24;;;;;;;;;17.25;17.25;;;;;;;;5247892;28;8799;-67
2023/03/10 00:53:55;;;;;;;;;5.80;5.20;;;;;;;;5248221;28;8836;-67
2023/03/10 00:56:45;;;;;;;;;4.00;4.00;;;;;;;;5248064;28;8768;-68
2023/03/10 00:59:16;;;;;;;;;5.00;5.00;;;;;;;;5229774;28;8780;-68
2023/03/10 01:01:47;;;;;;;;;0.40;0.40;;;;;;;;5229880;28;8784;-68
2023/03/10 01:04:36;;;;;;;;;2.00;2.00;;;;;;;;5216053;28;8776;-67
2023/03/10 01:07:07;;;;;;;;;11.75;11.75;;;;;;;;5229699;28;8792;-68
2023/03/10 01:09:38;;;;;;;;;14.40;14.40;;;;;;;;5229479;28;8862;-67
2023/03/10 01:12:09;;;;;;;;;8.60;8.20;;;;;;;;5240033;28;8841;-67
2023/03/10 01:14:40;;;;;;;;;9.00;8.50;;;;;;;;5250264;28;8798;-67
2023/03/10 01:17:30;;;;;;;;;7.00;6.40;;;;;;;;5232677;28;12302;-67
2023/03/10 01:20:02;;;;;;;;;20.20;20.20;;;;;;;;5213043;28;9480;-67
2023/03/10 01:22:33;;;;;;;;;6.80;6.80;;;;;;;;5212780;28;8784;-68
2023/03/10 01:25:05;;;;;;;;;3.50;3.00;;;;;;;;5212457;28;9536;-67
2023/03/10 01:27:35;;;;;;;;;4.20;4.20;;;;;;;;5228898;28;11367;-68
2023/03/10 01:30:24;;;;;;;;;4.20;4.20;;;;;;;;5232063;28;8785;-67
2023/03/10 01:32:55;;;;;;;;;3.60;3.60;;;;;;;;5264857;28;9608;-68
2023/03/10 01:35:28;;;;;;;;;7.80;7.80;;;;;;;;5242221;28;9516;-67
2023/03/10 01:38:17;;;;;;;;;8.80;8.00;;;;;;;;5247177;28;8800;-67
2023/03/10 01:40:49;;;;;;;;;10.00;10.00;;;;;;;;5247016;28;8780;-67
2023/03/10 01:43:23;;;;;;;;;5.60;5.60;;;;;;;;5228896;28;10304;-67
2023/03/10 01:46:00;;;;;;;;;28.00;24.00;;;;;;;;5212470;28;9588;-67
2023/03/10 01:48:34;;;;;;;;;6.40;6.40;;;;;;;;5196060;28;8824;-67
2023/03/10 01:51:06;;;;;;;;;4.20;4.20;;;;;;;;5242924;28;8874;-67
2023/03/10 01:53:38;;;;;;;;;2.00;2.00;;;;;;;;5250054;28;8790;-67
2023/03/10 01:56:09;;;;;;;;;4.40;4.40;;;;;;;;5229887;28;11437;-67
2023/03/10 01:58:43;;;;;;;;;1.00;1.00;;;;;;;;5212218;28;8812;-67
2023/03/10 02:01:16;;;;;;;;;8.40;7.80;;;;;;;;5228671;28;9507;-67
2023/03/10 02:03:56;;;;;;;;;3.20;3.20;;;;;;;;5212153;28;8867;-67
2023/03/10 02:06:28;;;;;;;;;10.20;10.20;;;;;;;;5212147;28;8804;-68
2023/03/10 02:09:00;;;;;;;;;23.40;19.00;;;;;;;;5214828;28;8814;-67
2023/03/10 02:11:32;;;;;;;;;17.40;17.20;;;;;;;;5249165;28;8774;-67
2023/03/10 02:14:21;;;;;;;;;10.40;10.40;;;;;;;;5252849;28;8862;-68
2023/03/10 02:16:52;;;;;;;;;2.50;2.50;;;;;;;;5215865;28;8787;-67
2023/03/10 02:19:43;;;;;;;;;4.25;4.25;;;;;;;;5249214;28;8790;-67
2023/03/10 02:22:16;;;;;;;;;2.40;2.40;;;;;;;;5208634;28;8791;-67
2023/03/10 02:24:51;;;;;;;;;11.60;11.20;;;;;;;;5248731;28;8929;-66
2023/03/10 02:27:29;;;;;;;;;18.20;18.20;;;;;;;;5249086;28;8806;-66
2023/03/10 02:30:06;;;;;;;;;5.00;5.00;;;;;;;;5214214;28;8839;-67
2023/03/10 02:32:45;;;;;;;;;11.80;11.20;;;;;;;;5212165;28;8789;-66
2023/03/10 02:35:34;;;;;;;;;6.20;6.20;;;;;;;;5231383;28;8797;-67
2023/03/10 02:38:10;;;;;;;;;4.00;4.00;;;;;;;;5216934;28;8889;-66
2023/03/10 02:40:45;;;;;;;;;4.00;4.00;;;;;;;;5215697;28;8773;-66
2023/03/10 02:43:25;;;;;;;;;4.00;4.00;;;;;;;;5238579;28;8798;-66
2023/03/10 02:46:01;;;;;;;;;2.80;2.80;;;;;;;;5236424;28;8794;-66
2023/03/10 02:48:35;;;;;;;;;4.00;4.00;;;;;;;;5223624;28;8797;-66
2023/03/10 02:51:28;;;;;;;;;1.00;1.00;;;;;;;;5250421;28;9630;-66
2023/03/10 02:54:01;;;;;;;;;7.00;7.00;;;;;;;;5216201;28;8769;-66
2023/03/10 02:56:34;;;;;;;;;7.60;7.20;;;;;;;;5232470;28;8761;-66
2023/03/10 02:59:05;;;;;;;;;4.60;4.60;;;;;;;;5250071;28;8895;-67
2023/03/10 03:01:38;;;;;;;;;2.00;2.00;;;;;;;;5231902;28;8919;-66
2023/03/10 03:04:09;;;;;;;;;83.00;62.20;;;;;;;;5269348;28;8868;-66
2023/03/10 03:06:41;;;;;;;;;28.60;27.80;;;;;;;;5249132;28;9535;-67
2023/03/10 03:09:13;;;;;;;;;6.00;6.00;;;;;;;;5215260;28;9713;-66
2023/03/10 03:11:44;;;;;;;;;4.20;4.00;;;;;;;;5249520;28;8791;-67
2023/03/10 03:14:17;;;;;;;;;2.40;2.40;;;;;;;;5215184;28;8804;-66
2023/03/10 03:16:48;;;;;;;;;2.00;2.00;;;;;;;;5215261;28;8777;-66
2023/03/10 03:19:19;;;;;;;;;1.00;1.00;;;;;;;;5215234;28;8780;-66
2023/03/10 03:21:51;;;;;;;;;7.60;6.00;;;;;;;;5238477;28;8794;-66
2023/03/10 03:24:22;;;;;;;;;2.00;2.00;;;;;;;;5235817;28;8814;-66
2023/03/10 03:26:53;;;;;;;;;15.40;14.40;;;;;;;;5224010;28;8943;-67
2023/03/10 03:29:42;;;;;;;;;7.60;3.20;;;;;;;;5233130;28;8810;-67
2023/03/10 03:32:13;;;;;;;;;92.75;72.75;;;;;;;;5270376;28;8783;-67
2023/03/10 03:34:45;;;;;;;;;24.80;24.80;;;;;;;;5251905;28;8821;-66
2023/03/10 03:37:16;;;;;;;;;8.00;8.00;;;;;;;;5252383;28;8770;-66
2023/03/10 03:39:47;;;;;;;;;2.50;2.50;;;;;;;;5252367;28;8775;-67
2023/03/10 03:42:18;;;;;;;;;3.20;3.20;;;;;;;;5235384;28;11429;-66
2023/03/10 03:44:54;;;;;;;;;5.40;5.40;;;;;;;;5228026;28;8801;-66
2023/03/10 03:47:26;;;;;;;;;7.00;5.80;;;;;;;;5230477;28;8808;-66
2023/03/10 03:50:16;;;;;;;;;16.80;16.00;;;;;;;;5233913;28;8868;-66
2023/03/10 03:52:47;;;;;;;;;16.40;13.20;;;;;;;;5214391;28;8861;-66
2023/03/10 03:55:20;;;;;;;;;12.00;11.60;;;;;;;;5214852;28;8813;-67
2023/03/10 03:57:54;;;;;;;;;24.80;19.40;;;;;;;;5248734;28;8781;-66
2023/03/10 04:00:25;;;;;;;;;5.80;5.80;;;;;;;;5227049;28;8809;-67
2023/03/10 04:03:05;;;;;;;;;5.80;5.80;;;;;;;;5254705;28;8801;-74
2023/03/10 04:05:38;;;;;;;;;12.00;12.00;;;;;;;;5214505;28;8788;-75
2023/03/10 04:08:11;;;;;;;;;5.40;5.40;;;;;;;;5213502;28;8893;-75
2023/03/10 04:10:49;;;;;;;;;2.00;2.00;;;;;;;;5214864;28;8782;-74
2023/03/10 04:13:42;;;;;;;;;4.00;3.20;;;;;;;;5229132;28;8794;-74
2023/03/10 04:16:16;;;;;;;;;5.80;5.80;;;;;;;;5178452;28;8812;-74
2023/03/10 04:18:50;;;;;;;;;4.20;4.20;;;;;;;;5230697;28;9573;-74
2023/03/10 04:21:25;;;;;;;;;5.00;5.00;;;;;;;;5196870;28;8830;-74
2023/03/10 04:23:59;;;;;;;;;15.40;14.40;;;;;;;;5210998;28;8917;-68
2023/03/10 04:26:36;;;;;;;;;27.00;25.60;;;;;;;;5245644;28;9673;-76
2023/03/10 04:29:10;;;;;;;;;10.60;9.80;;;;;;;;5213300;28;8832;-75
2023/03/10 04:31:45;;;;;;;;;14.00;14.00;;;;;;;;5209826;28;8771;-74
2023/03/10 04:34:17;;;;;;;;;10.80;10.80;;;;;;;;5192907;28;8779;-74
2023/03/10 04:36:50;;;;;;;;;28.20;28.20;;;;;;;;5198275;28;8780;-75
2023/03/10 04:39:25;;;;;;;;;20.60;17.80;;;;;;;;5213627;28;9511;-79
2023/03/10 04:41:59;;;;;;;;;12.80;12.80;;;;;;;;5212623;28;8814;-75
2023/03/10 04:44:32;;;;;;;;;18.80;14.60;;;;;;;;5229354;28;8938;-78
2023/03/10 04:47:06;;;;;;;;;27.60;26.20;;;;;;;;5207048;28;8859;-78
2023/03/10 04:49:38;;;;;;;;;20.00;18.40;;;;;;;;5207516;28;8863;-77
2023/03/10 04:52:31;;;;;;;;;28.80;25.80;;;;;;;;5224767;28;8800;-77
2023/03/10 04:55:04;;;;;;;;;10.00;9.20;;;;;;;;5195447;28;8839;-76
2023/03/10 04:57:38;;;;;;;;;5.40;5.40;;;;;;;;5211677;28;8768;-76
2023/03/10 05:00:11;;;;;;;;;8.60;8.60;;;;;;;;5213452;28;8792;-76
2023/03/10 05:02:46;;;;;;;;;27.00;25.60;;;;;;;;5218580;28;8787;-76
2023/03/10 05:05:19;;;;;;;;;8.80;8.80;;;;;;;;5228733;28;8827;-76
2023/03/10 05:07:53;;;;;;;;;7.20;6.00;;;;;;;;5178874;28;8823;-76
2023/03/10 05:10:32;;;;;;;;;9.80;9.80;;;;;;;;5211420;28;8816;-75
2023/03/10 05:13:11;;;;;;;;;103.80;82.40;;;;;;;;5227817;28;8780;-76
2023/03/10 05:15:45;;;;;;;;;40.00;36.80;;;;;;;;5211482;28;8819;-77
2023/03/10 05:18:18;;;;;;;;;25.20;25.20;;;;;;;;5211042;28;8793;-78
2023/03/10 05:20:54;;;;;;;;;13.00;13.00;;;;;;;;5212540;28;9521;-79
2023/03/10 05:23:28;;;;;;;;;12.60;12.60;;;;;;;;5231255;28;8937;-78
2023/03/10 05:26:19;;;;;;;;;40.20;33.20;;;;;;;;5221316;28;8796;-69
2023/03/10 05:28:51;;;;;;;;;16.00;14.60;;;;;;;;5210508;28;8974;-72
2023/03/10 05:31:30;;;;;;;;;9.00;9.00;;;;;;;;5226915;28;8838;-71
2023/03/10 05:34:12;;;;;;;;;8.40;8.40;;;;;;;;5210636;28;8804;-72
2023/03/10 05:36:44;;;;;;;;;13.80;13.80;;;;;;;;5226861;28;8796;-70
2023/03/10 05:39:34;;;;;;;;;14.40;14.40;;;;;;;;5230398;28;8808;-69
2023/03/10 05:42:11;;;;;;;;;10.80;10.80;;;;;;;;5210074;28;8812;-69
2023/03/10 05:44:43;;;;;;;;;1.80;1.20;;;;;;;;5207775;28;9564;-69
2023/03/10 05:47:17;;;;;;;;;62.60;51.00;;;;;;;;5239665;28;8901;-69
2023/03/10 05:49:50;;;;;;;;;4.60;4.60;;;;;;;;5226654;28;8823;-70
2023/03/10 05:52:21;;;;;;;;;14.00;14.00;;;;;;;;5210172;28;8804;-68
2023/03/10 05:55:12;;;;;;;;;9.00;9.00;;;;;;;;5226813;28;8816;-69
2023/03/10 05:57:45;;;;;;;;;17.20;16.20;;;;;;;;5192664;28;8790;-69
2023/03/10 06:00:17;;;;;;;;;77.80;64.00;;;;;;;;5216801;28;8815;-68
2023/03/10 06:02:58;;;;;;;;;28.80;25.20;;;;;;;;5232691;28;8915;-68
2023/03/10 06:05:29;;;;;;;;;10.00;10.00;;;;;;;;5218597;28;8794;-68
2023/03/10 06:08:00;;;;;;;;;10.00;10.00;;;;;;;;5228761;28;8837;-68
2023/03/10 06:10:31;;;;;;;;;7.00;7.00;;;;;;;;5227713;28;8800;-69
2023/03/10 06:13:02;;;;;;;;;34.75;34.00;;;;;;;;5228064;28;9516;-69
2023/03/10 06:15:33;;;;;;;;;25.00;24.75;;;;;;;;5246069;28;11421;-69
2023/03/10 06:18:04;;;;;;;;;15.00;14.20;;;;;;;;5227983;28;11491;-69
2023/03/10 06:20:54;;;;;;;;;11.00;11.00;;;;;;;;5230878;28;8814;-71
2023/03/10 06:23:26;;;;;;;;;15.40;15.40;;;;;;;;5227200;28;8809;-68
2023/03/10 06:25:58;;;;;;;;;24.60;24.40;;;;;;;;5245510;28;8832;-68
2023/03/10 06:28:31;;;;;;;;;9.40;9.40;;;;;;;;5228046;28;8868;-68
2023/03/10 06:31:05;;;;;;;;;12.20;12.20;;;;;;;;5245308;28;9510;-69
2023/03/10 06:33:36;;;;;;;;;21.80;21.60;;;;;;;;5241262;28;8810;-69
2023/03/10 06:36:08;;;;;;;;;2.60;1.40;;;;;;;;5264222;28;8787;-68
2023/03/10 06:38:40;;;;;;;;;8.80;8.80;;;;;;;;5230593;28;8794;-69
2023/03/10 06:41:10;;;;;;;;;21.60;20.20;;;;;;;;5226619;28;8797;-68
2023/03/10 06:43:42;;;;;;;;;10.20;10.20;;;;;;;;5245979;28;8803;-68
2023/03/10 06:46:31;;;;;;;;;12.40;11.00;;;;;;;;5213602;28;8904;-67
2023/03/10 06:49:21;;;;;;;;;5.80;4.60;;;;;;;;5232305;28;9545;-68
2023/03/10 06:51:52;;;;;;;;;8.00;8.00;;;;;;;;5228239;28;8785;-67
2023/03/10 06:54:23;;;;;;;;;8.50;7.50;;;;;;;;5240663;28;8791;-67
2023/03/10 06:56:54;;;;;;;;;10.20;10.20;;;;;;;;5220088;28;8795;-67
2023/03/10 06:59:26;;;;;;;;;12.60;12.20;;;;;;;;5230071;28;8773;-74
2023/03/10 07:01:58;;;;;;;;;5.00;5.00;;;;;;;;5195408;28;8785;-74
2023/03/10 07:04:31;;;;;;;;;26.20;25.80;;;;;;;;5194994;28;9617;-74
2023/03/10 07:07:04;;;;;;;;;12.00;12.00;;;;;;;;5194957;28;9549;-75
2023/03/10 07:09:37;;;;;;;;;5.60;5.60;;;;;;;;5194540;28;8878;-74
2023/03/10 07:12:10;;;;;;;;;7.00;7.00;;;;;;;;5194868;28;8788;-74
2023/03/10 07:14:43;;;;;;;;;11.00;11.00;;;;;;;;5192942;28;8813;-75
2023/03/10 07:17:15;;;;;;;;;18.20;18.20;;;;;;;;5190366;28;8811;-75
2023/03/10 07:19:48;;;;;;;;;7.20;7.20;;;;;;;;5194645;28;8907;-75
2023/03/10 07:22:21;;;;;;;;;26.80;26.80;;;;;;;;5212828;28;8791;-74
2023/03/10 07:24:54;;;;;;;;;6.20;6.20;;;;;;;;5198626;28;8773;-77
2023/03/10 07:27:26;;;;;;;;;21.80;21.20;;;;;;;;5214149;28;8831;-75
2023/03/10 07:29:59;;;;;;;;;19.00;19.00;;;;;;;;5198237;28;8824;-75
2023/03/10 07:32:32;;;;;;;;;87.40;64.40;;;;;;;;5198268;28;9523;-75
2023/03/10 07:35:05;;;;;;;;;6.40;5.80;;;;;;;;5198355;28;8777;-75
2023/03/10 07:37:39;;;;;;;;;2.00;2.00;;;;;;;;5214690;28;8809;-75
2023/03/10 07:40:12;;;;;;;;;10.00;9.60;;;;;;;;5198396;28;8795;-75
2023/03/10 07:42:45;;;;;;;;;7.60;7.60;;;;;;;;5214342;28;8838;-75
2023/03/10 07:45:18;;;;;;;;;6.40;6.40;;;;;;;;5198121;28;8788;-75
2023/03/10 07:47:53;;;;;;;;;14.40;13.80;;;;;;;;5215130;28;8861;-74
2023/03/10 07:50:45;;;;;;;;;5.40;5.40;;;;;;;;5217211;28;8927;-74
2023/03/10 07:53:18;;;;;;;;;13.00;13.00;;;;;;;;5195933;28;8812;-74
2023/03/10 07:55:50;;;;;;;;;79.20;62.40;;;;;;;;5209059;28;8861;-75
2023/03/10 07:58:23;;;;;;;;;13.80;12.80;;;;;;;;5196089;28;8811;-74
2023/03/10 08:00:55;;;;;;;;;11.80;11.80;;;;;;;;5193073;28;8801;-75
2023/03/10 08:03:27;;;;;;;;;7.20;7.20;;;;;;;;5197673;28;8838;-76
2023/03/10 08:05:58;;;;;;;;;6.80;6.80;;;;;;;;5197744;28;8769;-75
2023/03/10 08:08:48;;;;;;;;;5.60;5.60;;;;;;;;5217051;28;9641;-75
2023/03/10 08:11:20;;;;;;;;;5.00;5.00;;;;;;;;5197530;28;9622;-74
2023/03/10 08:13:51;;;;;;;;;4.60;4.60;;;;;;;;5194705;28;8843;-76
2023/03/10 08:16:22;;;;;;;;;7.00;7.00;;;;;;;;5193238;28;8786;-75
2023/03/10 08:18:53;;;;;;;;;4.20;4.20;;;;;;;;5177496;28;8795;-75
2023/03/10 08:21:24;;;;;;;;;11.40;10.40;;;;;;;;5177016;28;8794;-68
2023/03/10 08:24:14;;;;;;;;;15.40;13.60;;;;;;;;5198388;28;8805;-76
2023/03/10 08:26:45;;;;;;;;;24.80;24.40;;;;;;;;5194250;28;8830;-67
2023/03/10 08:29:16;;;;;;;;;6.75;6.75;;;;;;;;5213800;28;8827;-67
2023/03/10 08:31:47;;;;;;;;;7.60;7.00;;;;;;;;5213387;28;8915;-68
2023/03/10 08:34:18;;;;;;;;;6.00;6.00;;;;;;;;5213470;28;8915;-67
2023/03/10 08:36:49;;;;;;;;;9.00;9.00;;;;;;;;5247550;28;8792;-68
2023/03/10 08:39:19;;;;;;;;;12.00;11.25;;;;;;;;5229997;28;10093;-67
2023/03/10 08:41:50;;;;;;;;;6.00;6.00;;;;;;;;5248103;28;9848;-67
2023/03/10 08:44:21;;;;;;;;;14.50;13.50;;;;;;;;5247569;28;8813;-67
2023/03/10 08:46:52;;;;;;;;;14.20;14.20;;;;;;;;5180557;28;8823;-67
2023/03/10 08:49:23;;;;;;;;;25.40;24.60;;;;;;;;5208850;28;8819;-68
2023/03/10 08:52:12;;;;;;;;;6.20;6.20;;;;;;;;5209598;28;8794;-67
2023/03/10 08:54:43;;;;;;;;;8.40;8.40;;;;;;;;5226783;28;8798;-67
2023/03/10 08:57:14;;;;;;;;;10.00;10.00;;;;;;;;5226827;28;8794;-67
2023/03/10 09:00:05;;;;;;;;;13.20;13.20;;;;;;;;5213981;28;8801;-67
2023/03/10 09:02:36;;;;;;;;;18.80;18.80;;;;;;;;5211531;28;8795;-68
2023/03/10 09:05:07;;;;;;;;;17.25;16.00;;;;;;;;5247829;28;8795;-68
2023/03/10 09:07:37;;;;;;;;;14.00;14.00;;;;;;;;5250061;28;11578;-67
2023/03/10 09:10:09;;;;;;;;;10.00;10.00;;;;;;;;5221364;28;8936;-67
2023/03/10 09:12:39;;;;;;;;;51.00;43.60;;;;;;;;5224612;28;8858;-74
2023/03/10 09:15:11;;;;;;;;;40.60;36.60;;;;;;;;5211732;28;8807;-75
2023/03/10 09:18:00;;;;;;;;;14.40;13.40;;;;;;;;5212511;28;8810;-75
2023/03/10 09:20:31;;;;;;;;;19.80;18.40;;;;;;;;5195252;28;8824;-76
2023/03/10 09:23:03;;;;;;;;;22.80;21.40;;;;;;;;5227940;28;8843;-76
2023/03/10 09:25:35;;;;;;;;;12.40;12.40;;;;;;;;5195866;28;8893;-75
2023/03/10 09:28:07;;;;;;;;;9.20;9.20;;;;;;;;5213619;28;8797;-77
2023/03/10 09:30:56;;;;;;;;;11.40;11.40;;;;;;;;5222101;28;8827;-75
2023/03/10 09:33:48;;;;;;;;;7.20;6.00;;;;;;;;5215296;28;8839;-75
2023/03/10 09:36:19;;;;;;;;;5.20;4.80;;;;;;;;5229168;28;8804;-76
2023/03/10 09:38:50;;;;;;;;;8.80;8.80;;;;;;;;5212327;28;8785;-75
2023/03/10 09:41:31;;;;;;;;;10.60;10.60;;;;;;;;5196028;28;9544;-76
2023/03/10 09:44:11;;;;;;;;;9.80;9.80;;;;;;;;5230051;28;8805;-75
2023/03/10 09:46:49;;;;;;;;;7.20;7.20;;;;;;;;5215288;28;8835;-76
2023/03/10 09:49:46;;;;;;;;;9.00;9.00;;;;;;;;5231858;28;9553;-75
2023/03/10 09:52:38;;;;;;;;;4.80;4.80;;;;;;;;5209154;28;8783;-75
2023/03/10 09:55:20;;;;;;;;;9.80;9.80;;;;;;;;5214069;28;8894;-75
2023/03/10 09:57:53;;;;;;;;;6.40;6.40;;;;;;;;5195681;28;8813;-75
2023/03/10 10:00:31;;;;;;;;;8.40;8.40;;;;;;;;5195345;28;8785;-75
2023/03/10 10:03:21;;;;;;;;;8.80;8.80;;;;;;;;5215002;28;8861;-75
2023/03/10 10:05:54;;;;;;;;;16.00;16.00;;;;;;;;5197903;28;8835;-75
2023/03/10 10:08:26;;;;;;;;;7.60;7.60;;;;;;;;5195162;28;8801;-75
2023/03/10 10:10:59;;;;;;;;;12.60;12.60;;;;;;;;5195505;28;8792;-75
2023/03/10 10:13:30;;;;;;;;;5.20;5.20;;;;;;;;5212094;28;9516;-75
2023/03/10 10:16:21;;;;;;;;;5.00;4.80;;;;;;;;5195575;28;8795;-76
2023/03/10 10:18:56;;;;;;;;;4.00;4.00;;;;;;;;5202745;28;8813;-77
2023/03/10 10:21:34;;;;;;;;;13.80;10.20;;;;;;;;5175825;28;8813;-76
2023/03/10 10:24:06;;;;;;;;;10.20;9.20;;;;;;;;5186634;28;8876;-75
2023/03/10 10:26:36;;;;;;;;;13.20;13.20;;;;;;;;5217399;28;9705;-68
2023/03/10 10:29:21;;;;;;;;;29.25;25.00;;;;;;;;5242248;28;8957;-68
2023/03/10 10:32:03;;;;;;;;;39.60;37.80;;;;;;;;5228369;28;9789;-68
2023/03/10 10:34:36;;;;;;;;;52.40;44.00;;;;;;;;5228765;28;8927;-68
2023/03/10 10:37:25;;;;;;;;;11.00;9.20;;;;;;;;5195127;28;8827;-69
2023/03/10 10:39:58;;;;;;;;;49.80;44.60;;;;;;;;5257426;28;8981;-69
2023/03/10 10:42:31;;;;;;;;;14.00;12.40;;;;;;;;5232402;28;8809;-68
2023/03/10 10:45:06;;;;;;;;;24.40;21.20;;;;;;;;5223586;28;8807;-69
2023/03/10 10:47:48;;;;;;;;;18.80;16.00;;;;;;;;5231699;28;8778;-70
2023/03/10 10:50:21;;;;;;;;;37.80;30.20;;;;;;;;5231601;28;8794;-70
2023/03/10 10:53:12;;;;;;;;;31.20;28.80;;;;;;;;5232369;28;8802;-70
2023/03/10 10:55:44;;;;;;;;;17.20;16.20;;;;;;;;5215619;28;8815;-70
2023/03/10 10:58:24;;;;;;;;;16.20;16.20;;;;;;;;5231127;28;8808;-70
2023/03/10 11:00:57;;;;;;;;;8.60;8.40;;;;;;;;5199032;28;8768;-69
2023/03/10 11:03:38;;;;;;;;;8.20;8.20;;;;;;;;5241273;28;8766;-69
2023/03/10 11:06:14;;;;;;;;;5.60;5.60;;;;;;;;5230901;28;8788;-68
2023/03/10 11:08:49;;;;;;;;;7.80;7.00;;;;;;;;5215187;28;8808;-69
2023/03/10 11:11:32;;;;;;;;;9.60;9.20;;;;;;;;5252281;28;9550;-67
2023/03/10 11:14:22;;;;;;;;;19.00;19.00;;;;;;;;5198659;28;8869;-67
2023/03/10 11:17:01;;;;;;;;;16.80;16.80;;;;;;;;5253499;28;8802;-67
2023/03/10 11:19:55;;;;;;;;;21.00;20.80;;;;;;;;5255706;28;8763;-68
2023/03/10 11:22:32;;;;;;;;;18.00;18.00;;;;;;;;5245520;28;8909;-68
2023/03/10 11:25:09;;;;;;;;;6.20;6.20;;;;;;;;5210541;28;8796;-67
2023/03/10 11:27:52;;;;;;;;;9.80;9.40;;;;;;;;5230905;28;8808;-69
2023/03/10 11:30:28;;;;;;;;;9.40;8.00;;;;;;;;5215127;28;8804;-67
2023/03/10 11:33:16;;;;;;;;;18.80;18.60;;;;;;;;5198443;28;8911;-68
2023/03/10 11:35:53;;;;;;;;;4.40;4.40;;;;;;;;5214630;28;8764;-67
2023/03/10 11:38:45;;;;;;;;;1.00;1.00;;;;;;;;5252793;28;8818;-67
2023/03/10 11:41:19;;;;;;;;;8.80;8.80;;;;;;;;5231694;28;8865;-67
2023/03/10 11:43:59;;;;;;;;;10.60;10.60;;;;;;;;5210262;28;8814;-67
2023/03/10 11:46:33;;;;;;;;;7.80;7.80;;;;;;;;5193764;28;8794;-67
2023/03/10 11:49:06;;;;;;;;;7.00;7.00;;;;;;;;5177381;28;8799;-67
2023/03/10 11:51:37;;;;;;;;;11.00;10.80;;;;;;;;5227978;28;8787;-67
2023/03/10 11:54:34;;;;;;;;;23.40;23.40;;;;;;;;5227054;28;9492;-67
2023/03/10 11:57:25;;;;;;;;;13.80;13.80;;;;;;;;5217651;28;8818;-67
2023/03/10 11:59:58;;;;;;;;;5.80;5.80;;;;;;;;5259756;28;8805;-67
2023/03/10 12:02:33;;;;;;;;;12.40;12.40;;;;;;;;5194540;28;9537;-67
2023/03/10 12:05:23;;;;;;;;;19.40;17.40;;;;;;;;5193430;28;8925;-68
2023/03/10 12:07:58;;;;;;;;;7.00;7.00;;;;;;;;5193070;28;8791;-67
2023/03/10 12:10:30;;;;;;;;;10.20;10.20;;;;;;;;5227917;28;8802;-67
2023/03/10 12:13:01;;;;;;;;;17.60;17.60;;;;;;;;5177355;28;8809;-68
2023/03/10 12:15:35;;;;;;;;;19.40;18.60;;;;;;;;5215308;28;8816;-69
2023/03/10 12:18:07;;;;;;;;;19.00;19.00;;;;;;;;5229372;28;8942;-69
2023/03/10 12:20:38;;;;;;;;;13.60;11.80;;;;;;;;5257721;28;8782;-68
2023/03/10 12:23:29;;;;;;;;;17.80;17.00;;;;;;;;5269068;28;8798;-68
2023/03/10 12:26:00;;;;;;;;;8.80;8.80;;;;;;;;5224418;28;8817;-68
2023/03/10 12:28:32;;;;;;;;;14.60;12.40;;;;;;;;5247642;28;8819;-68
2023/03/10 12:31:06;;;;;;;;;4.60;4.60;;;;;;;;5230162;28;8794;-68
2023/03/10 12:33:38;;;;;;;;;12.80;12.80;;;;;;;;5229970;28;8808;-66
2023/03/10 12:36:28;;;;;;;;;13.00;11.80;;;;;;;;5212433;28;8821;-66
2023/03/10 12:39:00;;;;;;;;;49.20;46.20;;;;;;;;5230829;28;8775;-68
2023/03/10 12:41:41;;;;;;;;;8.80;8.80;;;;;;;;5213461;28;8781;-68
2023/03/10 12:44:29;;;;;;;;;7.60;7.60;;;;;;;;5225446;28;8792;-68
2023/03/10 12:47:24;;;;;;;;;19.40;18.00;;;;;;;;5227027;28;8790;-68
2023/03/10 12:50:25;;;;;;;;;12.40;12.40;;;;;;;;5229347;28;9612;-68
2023/03/10 12:53:21;;;;;;;;;25.00;23.80;;;;;;;;5213637;28;8806;-68
2023/03/10 12:56:10;;;;;;;;;14.80;14.40;;;;;;;;5229720;28;8785;-68
2023/03/10 12:59:11;;;;;;;;;19.40;19.40;;;;;;;;5247407;28;8795;-67
2023/03/10 13:01:44;;;;;;;;;29.00;27.20;;;;;;;;5225295;28;8838;-68
2023/03/10 13:04:17;;;;;;;;;33.00;32.60;;;;;;;;5194262;28;9552;-69
2023/03/10 13:06:48;;;;;;;;;19.00;19.00;;;;;;;;5227899;28;8832;-68
2023/03/10 13:09:26;;;;;;;;;19.00;18.40;;;;;;;;5213120;28;8809;-68
2023/03/10 13:12:08;;;;;;;;;57.80;52.20;;;;;;;;5217350;28;8803;-68
2023/03/10 13:14:40;;;;;;;;;30.40;28.40;;;;;;;;5212734;28;8791;-68
2023/03/10 13:17:30;;;;;;;;;94.20;74.60;;;;;;;;5231725;28;8783;-68
2023/03/10 13:20:07;;;;;;;;;37.80;35.40;;;;;;;;5244850;28;8787;-67
2023/03/10 13:22:38;;;;;;;;;39.20;37.60;;;;;;;;5247121;28;8805;-67
2023/03/10 13:25:13;;;;;;;;;47.25;43.00;;;;;;;;5223593;28;8831;-68
2023/03/10 13:27:44;;;;;;;;;58.40;48.60;;;;;;;;5245658;28;11175;-66
2023/03/10 13:30:15;;;;;;;;;23.20;18.60;;;;;;;;5246460;28;8873;-66
2023/03/10 13:32:57;;;;;;;;;67.00;56.80;;;;;;;;5211742;28;8793;-67
2023/03/10 13:35:34;;;;;;;;;37.40;34.60;;;;;;;;5229093;28;8796;-66
2023/03/10 13:38:11;;;;;;;;;45.00;43.60;;;;;;;;5244951;28;8812;-67
2023/03/10 13:40:44;;;;;;;;;42.60;38.60;;;;;;;;5237786;28;8828;-66
2023/03/10 13:43:26;;;;;;;;;30.20;28.80;;;;;;;;5211542;28;9573;-65
2023/03/10 13:45:57;;;;;;;;;26.40;25.60;;;;;;;;5196195;28;8805;-67
2023/03/10 13:48:30;;;;;;;;;14.40;14.00;;;;;;;;5214152;28;8927;-66
2023/03/10 13:51:04;;;;;;;;;22.40;21.60;;;;;;;;5195225;28;8796;-68
2023/03/10 13:53:35;;;;;;;;;26.80;26.80;;;;;;;;5211361;28;9530;-67
2023/03/10 13:56:17;;;;;;;;;88.60;69.40;;;;;;;;5246058;28;8808;-67
2023/03/10 13:58:50;;;;;;;;;62.60;51.80;;;;;;;;5228661;28;8911;-66
2023/03/10 14:01:25;;;;;;;;;89.75;72.50;;;;;;;;5228208;28;8871;-67
2023/03/10 14:04:16;;;;;;;;;16.40;16.40;;;;;;;;5226412;28;8826;-66
2023/03/10 14:07:05;;;;;;;;;18.40;18.40;;;;;;;;5228575;28;8776;-66
2023/03/10 14:09:35;;;;;;;;;4.40;4.40;;;;;;;;5245893;28;8816;-66
2023/03/10 14:12:09;;;;;;;;;18.25;18.25;;;;;;;;5227490;28;8812;-68
2023/03/10 14:14:43;;;;;;;;;0.20;0.20;;;;;;;;5227674;28;8797;-67
2023/03/10 14:17:32;;;;;;;;;3.80;3.80;;;;;;;;5228251;28;8792;-70
2023/03/10 14:20:04;;;;;;;;;6.40;6.40;;;;;;;;5226242;28;8836;-70
2023/03/10 14:22:53;;;;;;;;;8.60;8.00;;;;;;;;5212311;28;8836;-69
2023/03/10 14:25:24;;;;;;;;;8.50;8.50;;;;;;;;5227257;28;8866;-68
2023/03/10 14:28:05;;;;;;;;;10.00;10.00;;;;;;;;5228011;28;12259;-68
2023/03/10 14:30:37;;;;;;;;;4.20;4.20;;;;;;;;5229207;28;8800;-68
2023/03/10 14:33:11;;;;;;;;;81.60;68.20;;;;;;;;5217661;28;9507;-69
2023/03/10 14:35:42;;;;;;;;;100.80;84.40;;;;;;;;5234367;28;8800;-68
2023/03/10 14:38:13;;;;;;;;;21.60;21.60;;;;;;;;5201580;28;8819;-69
2023/03/10 14:40:45;;;;;;;;;19.25;19.25;;;;;;;;5234735;28;8804;-69
2023/03/10 14:43:27;;;;;;;;;16.40;16.00;;;;;;;;5230619;28;8858;-69
2023/03/10 14:45:59;;;;;;;;;13.40;13.40;;;;;;;;5223667;28;8789;-70
2023/03/10 14:48:34;;;;;;;;;11.20;11.20;;;;;;;;5200005;28;8800;-70
2023/03/10 14:51:05;;;;;;;;;10.60;10.20;;;;;;;;5233125;28;8799;-71
2023/03/10 14:53:37;;;;;;;;;13.80;13.60;;;;;;;;5216108;28;8796;-70
2023/03/10 14:56:12;;;;;;;;;22.40;22.40;;;;;;;;5232582;28;8784;-69
2023/03/10 14:58:47;;;;;;;;;13.00;11.40;;;;;;;;5232970;28;8850;-70
2023/03/10 15:01:19;;;;;;;;;12.80;12.80;;;;;;;;5216396;28;8893;-69
2023/03/10 15:03:51;;;;;;;;;4.40;4.20;;;;;;;;5230364;28;8847;-71
2023/03/10 15:06:22;;;;;;;;;4.00;4.00;;;;;;;;5217103;28;8885;-69
2023/03/10 15:08:53;;;;;;;;;11.75;11.75;;;;;;;;5237239;28;8810;-67
2023/03/10 15:11:26;;;;;;;;;23.60;23.60;;;;;;;;5269388;28;9731;-69
2023/03/10 15:13:57;;;;;;;;;12.40;12.40;;;;;;;;5253551;28;8863;-68
2023/03/10 15:16:28;;;;;;;;;7.00;7.00;;;;;;;;5236846;28;8794;-70
2023/03/10 15:18:59;;;;;;;;;15.00;15.00;;;;;;;;5253121;28;8798;-69
2023/03/10 15:21:29;;;;;;;;;6.75;6.75;;;;;;;;5271466;28;8787;-68
2023/03/10 15:24:00;;;;;;;;;25.25;22.00;;;;;;;;5240843;28;8820;-68
2023/03/10 15:26:31;;;;;;;;;11.00;11.00;;;;;;;;5233319;28;8913;-69
2023/03/10 15:29:03;;;;;;;;;3.80;3.80;;;;;;;;5235810;28;8935;-68
2023/03/10 15:31:33;;;;;;;;;2.50;2.50;;;;;;;;5250145;28;8799;-69